Time;durP1;ratioP1;P1;durP2;ratioP2;P2;SDS_P1;SDS_P2;PMS_P1;PMS_P2;Temp;Humidity;BMP_temperature;BMP_pressure;BME280_temperature;BME280_humidity;BME280_pressure;Samples;Min_cycle;Max_cycle;Signal;HPM_P1;HPM_P2
2022/04/21 00:04:17;;;;;;;2.35;1.50;;;;;;;8.90;54.18;95220.91;10429285;27;97996;-64
2022/04/21 00:09:20;;;;;;;2.70;1.97;;;;;;;9.01;53.78;95218.94;10456384;27;96794;-64
2022/04/21 00:14:23;;;;;;;2.95;2.05;;;;;;;8.96;53.93;95203.81;10423971;27;97940;-64
2022/04/21 00:19:27;;;;;;;2.72;2.00;;;;;;;8.86;54.06;95210.97;10424918;27;97818;-64
2022/04/21 00:24:30;;;;;;;3.20;2.10;;;;;;;8.73;54.29;95209.66;10432324;27;96828;-64
2022/04/21 00:29:33;;;;;;;2.75;1.90;;;;;;;8.78;53.80;95208.34;10442579;27;96693;-64
2022/04/21 00:34:38;;;;;;;2.97;2.08;;;;;;;8.87;54.04;95207.38;10428917;27;96712;-64
2022/04/21 00:39:41;;;;;;;2.83;1.80;;;;;;;8.99;53.29;95211.28;10431743;27;98598;-64
2022/04/21 00:44:44;;;;;;;3.70;1.90;;;;;;;9.08;53.62;95207.69;10430118;27;101414;-64
2022/04/21 00:49:49;;;;;;;2.65;1.98;;;;;;;8.85;54.72;95207.56;10437074;27;96875;-64
2022/04/21 00:54:52;;;;;;;3.92;2.03;;;;;;;8.82;54.35;95201.84;10445128;27;96785;-64
2022/04/21 00:59:55;;;;;;;2.63;2.20;;;;;;;8.84;54.20;95197.28;10438655;27;96840;-64
2022/04/21 01:05:00;;;;;;;3.83;2.22;;;;;;;8.87;54.61;95197.78;10417974;27;97307;-64
2022/04/21 01:10:03;;;;;;;4.55;2.53;;;;;;;8.62;55.73;95196.97;10432298;27;96854;-64
2022/04/21 01:15:07;;;;;;;2.80;2.05;;;;;;;8.66;55.43;95194.84;10436276;27;96878;-64
2022/04/21 01:20:19;;;;;;;3.10;2.17;;;;;;;8.79;54.11;95194.34;10455516;27;96891;-64
2022/04/21 01:25:23;;;;;;;2.58;1.75;;;;;;;8.91;54.38;95193.06;10428183;27;96833;-64
2022/04/21 01:30:26;;;;;;;5.63;2.15;;;;;;;8.92;54.53;95194.69;10423631;27;97844;-64
2022/04/21 01:35:30;;;;;;;3.30;2.17;;;;;;;8.89;54.74;95189.81;10435495;27;99640;-64
2022/04/21 01:45:53;;;;;;;2.60;2.15;;;;;;;8.71;56.31;95203.00;10428046;27;96738;-63
2022/04/21 01:50:57;;;;;;;4.95;2.30;;;;;;;8.76;55.69;95199.88;10437755;27;97756;-64
2022/04/21 01:56:00;;;;;;;5.38;3.00;;;;;;;8.62;57.04;95194.34;10430705;27;97827;-64
2022/04/21 02:01:04;;;;;;;4.15;3.35;;;;;;;8.62;57.23;95204.78;10431735;27;98108;-64
2022/04/21 02:06:08;;;;;;;5.25;3.70;;;;;;;8.78;55.86;95196.16;10448004;27;96958;-64
2022/04/21 02:11:10;;;;;;;5.47;3.85;;;;;;;8.88;55.67;95182.97;10441162;27;96893;-64
2022/04/21 02:16:19;;;;;;;5.20;3.90;;;;;;;9.01;54.73;95172.88;10438637;27;96844;-64
2022/04/21 02:21:23;;;;;;;5.85;3.70;;;;;;;9.15;54.03;95184.41;10420994;27;96912;-64
2022/04/21 02:26:26;;;;;;;5.85;3.88;;;;;;;9.18;53.93;95175.47;10433437;27;97025;-64
2022/04/21 02:31:29;;;;;;;5.82;4.25;;;;;;;9.23;53.57;95173.19;10421560;27;96915;-63
2022/04/21 02:36:33;;;;;;;6.28;4.82;;;;;;;9.22;52.97;95174.16;10440306;27;96742;-64
2022/04/21 02:41:36;;;;;;;9.32;4.45;;;;;;;9.22;52.84;95163.72;10450118;27;97067;-64
2022/04/21 02:46:38;;;;;;;5.05;3.67;;;;;;;9.26;52.79;95165.00;10427315;27;96804;-64
2022/04/21 02:51:43;;;;;;;6.32;4.75;;;;;;;9.21;53.02;95162.09;10433745;27;96920;-64
2022/04/21 03:02:06;;;;;;;5.13;3.25;;;;;;;8.87;52.75;95155.31;10437019;27;96913;-64
2022/04/21 03:07:11;;;;;;;7.60;3.78;;;;;;;8.68;53.04;95159.84;10440500;27;97042;-64
2022/04/21 03:12:14;;;;;;;6.53;2.95;;;;;;;8.46;53.44;95157.88;10423159;27;98156;-64
2022/04/21 03:17:16;;;;;;;5.25;3.53;;;;;;;8.22;54.74;95149.09;10427953;27;96794;-64
2022/04/21 03:27:42;;;;;;;6.38;3.83;;;;;;;7.66;57.44;95146.13;10433603;27;96761;-63
2022/04/21 03:32:44;;;;;;;5.30;3.65;;;;;;;7.34;58.79;95147.63;10420846;27;97873;-64
2022/04/21 03:37:48;;;;;;;6.15;4.15;;;;;;;7.38;58.35;95142.94;10426088;27;100672;-64
2022/04/21 03:42:51;;;;;;;5.55;3.95;;;;;;;7.57;57.43;95145.28;10419301;27;96834;-64
2022/04/21 03:47:54;;;;;;;5.68;4.00;;;;;;;7.63;57.19;95143.03;10416751;27;96745;-63
2022/04/21 03:52:59;;;;;;;4.57;3.90;;;;;;;7.51;57.55;95145.94;10437433;27;97085;-64
2022/04/21 03:58:01;;;;;;;6.60;4.20;;;;;;;7.48;57.56;95137.63;10449026;27;97881;-64
2022/04/21 04:03:05;;;;;;;7.85;4.57;;;;;;;7.16;59.43;95132.13;10445376;27;100797;-64
2022/04/21 04:13:30;;;;;;;5.32;4.32;;;;;;;6.54;61.60;95129.56;10449334;27;96947;-64
2022/04/21 04:18:33;;;;;;;7.13;5.70;;;;;;;6.39;61.57;95124.06;10432812;27;96994;-64
2022/04/21 04:23:37;;;;;;;6.85;4.28;;;;;;;6.28;61.66;95113.94;10429958;27;97043;-64
2022/04/21 04:28:40;;;;;;;6.05;4.03;;;;;;;6.08;61.93;95114.06;10438011;27;96779;-64
2022/04/21 04:33:43;;;;;;;4.10;3.35;;;;;;;6.03;61.96;95105.91;10419455;27;97005;-64
2022/04/21 04:38:48;;;;;;;4.00;3.30;;;;;;;6.08;61.63;95108.88;10428240;27;97129;-64
2022/04/21 04:43:51;;;;;;;;;;;;;;;6.13;60.86;95105.03;10433760;27;96839;-64
2022/04/21 04:48:55;;;;;;;4.97;3.10;;;;;;;6.11;60.32;95112.16;10425999;27;96691;-64
2022/04/21 04:53:59;;;;;;;5.35;3.30;;;;;;;6.11;60.83;95106.97;10449146;27;97086;-63
2022/04/21 04:59:02;;;;;;;5.05;3.40;;;;;;;5.83;62.12;95120.78;10442029;27;98938;-64
2022/04/21 05:04:07;;;;;;;4.68;3.45;;;;;;;5.82;61.56;95124.34;10448694;27;97278;-64
2022/04/21 05:09:13;;;;;;;6.53;3.50;;;;;;;5.96;60.39;95124.81;10450609;27;100891;-64
2022/04/21 05:14:17;;;;;;;6.50;5.13;;;;;;;6.10;59.63;95124.28;10451056;27;96853;-64
2022/04/21 05:19:21;;;;;;;6.05;3.92;;;;;;;6.24;59.57;95128.97;10456198;27;96848;-64
2022/04/21 05:24:27;;;;;;;5.13;3.85;;;;;;;6.33;58.77;95129.88;10433891;27;97081;-64
2022/04/21 05:34:51;;;;;;;4.95;3.78;;;;;;;6.40;59.34;95149.06;10444050;27;96962;-64
2022/04/21 05:39:56;;;;;;;5.43;4.15;;;;;;;6.50;59.24;95138.59;10426633;27;100211;-64
2022/04/21 05:44:59;;;;;;;6.40;4.40;;;;;;;6.59;59.49;95140.31;10442809;27;96740;-64
2022/04/21 05:50:03;;;;;;;4.88;3.90;;;;;;;6.66;58.82;95141.31;10434890;27;98158;-64
2022/04/21 05:55:08;;;;;;;7.03;4.20;;;;;;;6.78;58.16;95136.72;10452239;27;97427;-65
2022/04/21 06:00:12;;;;;;;7.45;4.00;;;;;;;6.88;57.72;95136.59;10440026;27;96887;-64
2022/04/21 06:05:15;;;;;;;7.53;4.38;;;;;;;7.01;57.36;95131.06;10439166;27;98526;-64
2022/04/21 06:10:19;;;;;;;8.80;5.13;;;;;;;7.13;57.25;95129.03;10426913;27;96892;-64
2022/04/21 06:15:22;;;;;;;7.28;4.82;;;;;;;7.27;56.84;95125.84;10429878;27;97970;-64
2022/04/21 06:20:26;;;;;;;6.20;4.45;;;;;;;7.38;56.56;95127.34;10435284;27;96943;-64
2022/04/21 06:25:30;;;;;;;9.60;5.47;;;;;;;7.49;56.59;95129.69;10435448;27;96906;-64
2022/04/21 06:30:33;;;;;;;11.68;6.05;;;;;;;7.62;56.06;95131.03;10436682;27;97073;-64
2022/04/21 06:35:36;;;;;;;9.18;5.75;;;;;;;7.73;56.48;95125.53;10425189;27;96764;-64
2022/04/21 06:40:40;;;;;;;9.82;5.50;;;;;;;7.88;56.27;95128.34;10426603;27;97025;-64
2022/04/21 06:51:04;;;;;;;9.13;5.80;;;;;;;8.14;55.93;95128.25;10421988;27;96902;-64
2022/04/21 06:56:08;;;;;;;7.25;5.50;;;;;;;8.28;55.11;95132.81;10419978;27;96775;-64
2022/04/21 07:01:11;;;;;;;7.80;5.90;;;;;;;8.39;54.40;95126.47;10442169;27;96981;-64
2022/04/21 07:06:14;;;;;;;8.55;5.63;;;;;;;8.52;54.38;95120.81;10422428;27;96932;-64
2022/04/21 07:11:20;;;;;;;9.05;5.57;;;;;;;8.67;53.31;95108.78;10428635;27;96838;-64
2022/04/21 07:16:23;;;;;;;9.25;6.40;;;;;;;8.83;52.59;95107.94;10426736;27;96900;-65
2022/04/21 07:21:26;;;;;;;8.85;6.10;;;;;;;9.01;52.03;95105.13;10421702;27;96852;-64
2022/04/21 07:26:30;;;;;;;7.25;5.70;;;;;;;9.11;52.22;95095.34;10437534;27;97083;-64
2022/04/21 07:31:33;;;;;;;8.48;6.22;;;;;;;9.19;51.49;95094.50;10425553;27;96959;-64
2022/04/21 07:36:36;;;;;;;7.53;6.10;;;;;;;9.29;52.11;95082.09;10422904;27;96746;-64
2022/04/21 07:41:41;;;;;;;8.48;5.53;;;;;;;9.41;52.04;95090.38;10423350;27;96807;-64
2022/04/21 07:46:44;;;;;;;8.18;5.70;;;;;;;9.50;51.64;95072.13;10427275;27;97980;-64
2022/04/21 07:51:47;;;;;;;10.68;5.93;;;;;;;9.61;50.93;95071.72;10422389;27;97999;-64
2022/04/21 07:56:52;;;;;;;7.05;5.65;;;;;;;9.70;51.26;95069.91;10437602;27;100310;-64
2022/04/21 08:01:55;;;;;;;8.60;6.05;;;;;;;9.79;50.55;95068.88;10444652;27;97238;-64
2022/04/21 08:06:58;;;;;;;8.20;5.70;;;;;;;9.89;50.53;95061.66;10424896;27;96849;-64
2022/04/21 08:12:03;;;;;;;8.82;6.10;;;;;;;10.02;50.91;95072.31;10418144;27;96819;-64
2022/04/21 08:17:06;;;;;;;7.72;5.75;;;;;;;10.12;50.58;95066.88;10426738;27;96908;-64
2022/04/21 08:22:09;;;;;;;8.45;6.07;;;;;;;10.23;50.24;95058.66;10424418;27;96943;-64
2022/04/21 08:32:43;;;;;;;7.43;6.00;;;;;;;10.42;49.96;95052.13;10423459;27;96840;-64
2022/04/21 08:37:46;;;;;;;8.82;6.28;;;;;;;10.60;49.99;95038.78;10423906;27;98106;-64
2022/04/21 08:42:52;;;;;;;8.18;5.80;;;;;;;10.73;49.67;95032.13;10421441;27;96996;-63
2022/04/21 08:47:59;;;;;;;9.30;6.60;;;;;;;10.83;49.61;95027.47;10419679;27;96795;-64
2022/04/21 08:53:03;;;;;;;8.98;6.10;;;;;;;10.96;49.32;95022.44;10430367;27;96900;-65
2022/04/21 08:58:07;;;;;;;9.70;6.67;;;;;;;11.13;49.62;95017.81;10430595;27;98054;-64
2022/04/21 09:03:11;;;;;;;9.83;7.07;;;;;;;11.29;48.52;95016.78;10425051;27;99810;-64
2022/04/21 09:08:22;;;;;;;9.50;6.77;;;;;;;11.43;48.78;95012.56;10430666;27;96811;-64
2022/04/21 09:13:36;;;;;;;11.43;7.10;;;;;;;11.44;48.02;95003.75;10431083;27;97052;-65
2022/04/21 09:18:40;;;;;;;9.38;6.97;;;;;;;11.51;47.57;94998.59;10428043;27;96714;-65
2022/04/21 09:23:44;;;;;;;8.63;6.80;;;;;;;11.64;47.45;94990.91;10427758;27;98122;-64
2022/04/21 09:28:55;;;;;;;8.77;6.72;;;;;;;11.84;47.16;94992.91;10430109;27;98998;-64
2022/04/21 09:33:59;;;;;;;10.05;7.55;;;;;;;11.99;46.77;94988.44;10447881;27;96738;-65
2022/04/21 09:39:02;;;;;;;9.93;6.80;;;;;;;12.11;46.48;94984.31;10424729;27;101705;-65
2022/04/21 09:49:42;;;;;;;;;;;;;;;12.53;46.76;94978.38;10429582;27;97282;-64
2022/04/21 09:54:46;;;;;;;11.98;7.93;;;;;;;12.73;45.75;94963.59;10427551;27;98203;-64
2022/04/21 09:59:51;;;;;;;9.23;7.70;;;;;;;12.87;45.08;94956.63;10424929;27;96883;-65
2022/04/21 10:04:55;;;;;;;10.55;7.70;;;;;;;13.08;44.61;94958.38;10428522;27;96842;-65
2022/04/21 10:09:59;;;;;;;12.43;7.57;;;;;;;13.24;44.25;94952.00;10429559;27;96996;-64
2022/04/21 10:15:04;;;;;;;10.02;7.72;;;;;;;13.28;43.70;94942.75;10423506;27;96936;-64
2022/04/21 10:20:08;;;;;;;9.73;8.23;;;;;;;13.76;43.85;94939.25;10427694;27;96970;-65
2022/04/21 10:25:12;;;;;;;12.20;8.30;;;;;;;14.11;43.16;94929.38;10428388;27;97109;-65
2022/04/21 10:30:23;;;;;;;12.52;8.60;;;;;;;14.36;42.58;94913.84;10423894;27;96872;-65
2022/04/21 10:35:52;;;;;;;9.10;7.43;;;;;;;14.61;42.57;94905.31;10427178;27;96882;-65
2022/04/21 10:40:56;;;;;;;10.98;8.82;;;;;;;14.88;42.89;94890.28;10427738;27;96710;-65
2022/04/21 10:46:18;;;;;;;10.97;8.13;;;;;;;15.09;41.89;94886.53;10427116;27;97035;-65
2022/04/21 10:57:15;;;;;;;10.30;8.90;;;;;;;15.77;41.34;94858.88;10423607;27;96962;-65
2022/04/21 11:02:20;;;;;;;9.75;7.90;;;;;;;16.00;40.66;94852.22;10428829;27;96993;-65
2022/04/21 11:07:23;;;;;;;11.93;8.25;;;;;;;16.12;40.19;94847.88;10427341;27;100180;-65
2022/04/21 11:12:46;;;;;;;10.25;8.40;;;;;;;16.24;40.22;94835.59;10421288;27;97064;-65
2022/04/21 11:18:01;;;;;;;12.43;9.25;;;;;;;16.47;40.00;94834.16;10437400;27;96982;-65
2022/04/21 11:23:04;;;;;;;11.55;9.20;;;;;;;16.72;40.11;94838.53;10425859;27;96982;-65
2022/04/21 11:28:08;;;;;;;10.65;8.13;;;;;;;16.84;38.97;94842.09;10409082;27;97107;-65
2022/04/21 11:33:14;;;;;;;11.77;9.43;;;;;;;17.15;39.23;94842.94;10421758;27;97207;-65
2022/04/21 11:38:17;;;;;;;12.77;8.45;;;;;;;17.57;38.77;94829.75;10425614;27;96811;-65
2022/04/21 11:43:20;;;;;;;10.02;8.27;;;;;;;17.91;38.81;94822.97;10426881;27;97456;-65
2022/04/21 11:48:28;;;;;;;11.35;8.50;;;;;;;17.96;38.24;94819.66;10421413;27;96939;-65
2022/04/21 11:53:35;;;;;;;15.00;9.10;;;;;;;18.06;38.22;94809.28;10437979;27;96980;-65
2022/04/21 11:58:41;;;;;;;11.05;9.25;;;;;;;18.02;37.61;94812.63;10424719;27;96764;-65
2022/04/21 12:09:15;;;;;;;11.02;8.65;;;;;;;18.25;36.92;94817.13;10419799;27;97248;-65
2022/04/21 12:14:18;;;;;;;11.68;9.07;;;;;;;18.02;38.31;94813.44;10424081;27;96779;-64
2022/04/21 12:19:29;;;;;;;12.93;8.88;;;;;;;18.18;37.19;94819.06;10426209;27;96894;-65
2022/04/21 12:24:34;;;;;;;15.05;9.10;;;;;;;17.68;36.93;94817.59;10442663;27;96877;-65
2022/04/21 12:29:46;;;;;;;11.23;8.25;;;;;;;17.82;37.35;94807.63;10446966;27;96678;-65
2022/04/21 12:34:51;;;;;;;11.70;9.13;;;;;;;17.62;37.27;94797.41;10431769;27;96926;-65
2022/04/21 12:39:55;;;;;;;10.32;7.90;;;;;;;17.83;37.69;94798.69;10431256;27;96766;-65
2022/04/21 12:45:18;;;;;;;12.57;8.05;;;;;;;18.08;35.87;94791.38;10428497;27;96834;-65
2022/04/21 12:50:23;;;;;;;8.90;6.20;;;;;;;18.30;36.00;94788.16;10431100;27;96809;-66
2022/04/21 12:55:28;;;;;;;7.88;5.80;;;;;;;18.04;35.56;94784.94;10430985;27;97320;-65
2022/04/21 13:00:33;;;;;;;8.13;5.97;;;;;;;17.70;35.05;94773.28;10427624;27;96974;-65
2022/04/21 13:05:44;;;;;;;;;;;;;;;17.73;36.06;94768.38;10429989;27;96701;-66
2022/04/21 13:10:48;;;;;;;10.65;6.28;;;;;;;17.80;34.72;94768.25;10430817;27;97828;-66
2022/04/21 13:15:51;;;;;;;9.15;6.00;;;;;;;17.52;34.67;94761.78;10429530;27;97318;-65
2022/04/21 13:26:28;;;;;;;8.07;6.45;;;;;;;18.15;35.21;94732.31;10295580;28;97045;-65
2022/04/21 13:36:53;;;;;;;6.40;5.10;;;;;;;18.71;33.79;94717.59;10299607;28;97009;-65
2022/04/21 13:41:56;;;;;;;6.25;4.60;;;;;;;18.90;33.49;94706.81;10293332;28;96764;-65
2022/04/21 13:46:59;;;;;;;8.18;5.18;;;;;;;19.08;33.37;94706.63;10301003;28;96900;-66
2022/04/21 13:52:04;;;;;;;8.38;5.65;;;;;;;19.36;32.72;94699.69;10298934;28;96913;-65
2022/04/21 13:57:07;;;;;;;8.57;6.32;;;;;;;19.49;33.37;94688.78;10292314;28;96989;-65
2022/04/21 14:02:09;;;;;;;8.80;6.22;;;;;;;19.52;34.38;94685.66;10395326;27;96960;-65
2022/04/21 14:07:14;;;;;;;10.30;6.38;;;;;;;19.21;34.21;94685.16;10428614;27;96919;-66
2022/04/21 14:12:18;;;;;;;8.48;6.43;;;;;;;19.63;34.98;94676.78;10424372;27;96969;-65
2022/04/21 14:17:21;;;;;;;8.95;6.88;;;;;;;20.17;33.27;94659.53;10429462;27;96825;-64
2022/04/21 14:22:25;;;;;;;10.65;7.00;;;;;;;20.65;33.87;94659.78;10427746;27;98502;-65
2022/04/21 14:27:28;;;;;;;8.60;6.95;;;;;;;21.09;33.08;94663.19;10424863;27;99859;-65
2022/04/21 14:32:31;;;;;;;8.00;6.25;;;;;;;21.90;32.45;94665.91;10439410;27;96976;-65
2022/04/21 14:48:16;;;;;;;9.35;7.00;;;;;;;22.62;31.19;94670.50;10423204;27;96735;-64
2022/04/21 14:53:22;;;;;;;8.32;7.40;;;;;;;22.94;30.26;94664.19;10426860;27;97365;-65
2022/04/21 14:58:25;;;;;;;7.93;7.13;;;;;;;22.89;30.14;94666.84;10429487;27;99735;-65
2022/04/21 15:03:28;;;;;;;11.25;7.00;;;;;;;22.74;29.79;94666.81;10422397;27;97079;-65
2022/04/21 15:08:33;;;;;;;9.57;7.43;;;;;;;23.00;29.38;94663.13;10438346;27;96955;-65
2022/04/21 15:13:35;;;;;;;8.32;7.43;;;;;;;23.60;29.36;94659.16;10426928;27;97026;-65
2022/04/21 15:18:38;;;;;;;7.93;7.03;;;;;;;23.96;28.87;94657.25;10424859;27;98780;-65
2022/04/21 15:23:42;;;;;;;7.83;7.03;;;;;;;24.02;28.60;94655.34;10423690;27;96779;-65
2022/04/21 15:28:47;;;;;;;9.18;8.05;;;;;;;24.06;28.34;94654.56;10426238;27;100006;-65
2022/04/21 15:33:50;;;;;;;7.95;6.93;;;;;;;24.30;27.90;94651.31;10424821;27;96927;-65
2022/04/21 15:38:54;;;;;;;;;;;;;;;24.40;28.81;94650.44;10422265;27;96826;-66
2022/04/21 15:43:57;;;;;;;8.95;6.00;;;;;;;24.33;28.55;94653.41;10426105;27;96756;-65
2022/04/21 15:49:00;;;;;;;10.20;6.70;;;;;;;24.28;27.80;94648.91;10425500;27;96958;-66
2022/04/21 15:59:27;;;;;;;;;;;;;;;23.86;28.29;94635.94;10424279;27;97000;-65
2022/04/21 16:04:30;;;;;;;8.10;6.20;;;;;;;23.59;27.88;94630.94;10425008;27;96975;-65
2022/04/21 16:09:35;;;;;;;9.55;6.35;;;;;;;23.80;27.79;94615.69;10422587;27;96772;-66
2022/04/21 16:14:38;;;;;;;6.75;5.70;;;;;;;24.24;27.03;94620.38;10448802;27;96816;-66
2022/04/21 16:19:49;;;;;;;6.15;5.45;;;;;;;24.05;27.40;94628.16;10445868;27;97092;-65
2022/04/21 16:24:53;;;;;;;6.60;5.47;;;;;;;24.08;27.12;94622.31;10419076;27;97496;-65
2022/04/21 16:29:56;;;;;;;6.03;5.10;;;;;;;24.26;26.58;94618.22;10444074;27;98152;-64
2022/04/21 16:34:59;;;;;;;5.47;4.50;;;;;;;24.24;26.67;94613.16;10444292;27;97186;-66
2022/04/21 16:40:04;;;;;;;7.03;4.35;;;;;;;24.16;26.44;94604.91;10448662;27;96881;-65
2022/04/21 16:45:08;;;;;;;8.40;5.35;;;;;;;24.65;25.84;94596.16;10449849;27;96886;-66
2022/04/21 16:50:11;;;;;;;7.43;5.35;;;;;;;25.32;25.48;94611.69;10447887;27;97030;-66
2022/04/21 16:55:15;;;;;;;6.80;4.80;;;;;;;25.15;25.64;94596.88;10448428;27;96851;-66
2022/04/21 17:02:54;;;;;;;6.63;4.85;;;;;;;25.20;25.49;94604.88;10450257;27;97089;-66
2022/04/21 17:05:43;;;;;;;6.45;4.43;;;;;;;25.04;25.75;94600.69;10450427;27;97879;-65
2022/04/21 17:10:47;;;;;;;4.88;4.05;;;;;;;24.35;25.95;94595.25;10437040;27;97209;-65
2022/04/21 17:15:50;;;;;;;5.57;4.65;;;;;;;23.51;26.60;94592.28;10446137;27;97902;-66
2022/04/21 17:20:55;;;;;;;5.50;4.60;;;;;;;22.81;26.98;94595.47;10441426;27;97521;-65
2022/04/21 17:25:59;;;;;;;8.85;4.90;;;;;;;21.45;28.22;94596.22;10451930;27;96883;-65
2022/04/21 17:31:02;;;;;;;5.18;4.30;;;;;;;20.51;29.37;94590.41;10443215;27;97173;-65
2022/04/21 17:36:06;;;;;;;5.95;4.00;;;;;;;19.70;30.22;94583.13;10448927;27;96874;-65
2022/04/21 17:41:10;;;;;;;5.70;4.43;;;;;;;19.11;30.78;94580.97;10437576;27;99886;-65
2022/04/21 17:46:19;;;;;;;4.60;3.65;;;;;;;18.44;32.22;94582.47;10444539;27;98837;-65
2022/04/21 17:51:22;;;;;;;5.55;3.90;;;;;;;17.88;34.04;94580.38;10458295;27;97099;-65
2022/04/21 17:56:26;;;;;;;9.65;4.53;;;;;;;17.49;35.01;94576.63;10443805;27;96937;-64
2022/04/21 18:01:29;;;;;;;6.40;4.20;;;;;;;17.11;36.01;94577.91;10434075;27;98901;-64
2022/04/21 18:06:32;;;;;;;5.68;4.35;;;;;;;16.69;36.83;94585.84;10424198;27;97246;-64
2022/04/21 18:11:36;;;;;;;5.40;4.05;;;;;;;16.39;37.18;94584.06;10449983;27;96754;-64
2022/04/21 18:16:39;;;;;;;6.15;3.72;;;;;;;16.13;38.25;94580.75;10436973;27;98643;-64
2022/04/21 18:21:43;;;;;;;8.27;3.90;;;;;;;15.95;38.06;94583.44;10431970;27;96879;-64
2022/04/21 18:26:49;;;;;;;5.45;3.88;;;;;;;15.63;38.19;94580.97;10420133;27;97052;-64
2022/04/21 18:31:52;;;;;;;6.88;4.13;;;;;;;15.29;38.42;94576.03;10430060;27;97177;-64
2022/04/21 18:36:54;;;;;;;5.43;3.88;;;;;;;15.07;37.97;94572.19;10446690;27;96837;-63
2022/04/21 18:41:59;;;;;;;5.75;3.90;;;;;;;14.96;38.14;94573.72;10448529;27;97962;-64
2022/04/21 18:47:02;;;;;;;5.53;4.20;;;;;;;14.91;38.04;94573.56;10438696;27;96870;-64
2022/04/21 18:52:06;;;;;;;6.28;3.72;;;;;;;14.72;37.47;94567.44;10446466;27;96853;-64
2022/04/21 18:57:10;;;;;;;6.38;3.97;;;;;;;14.55;37.83;94569.78;10447510;27;96996;-64
2022/04/21 19:02:13;;;;;;;8.97;4.33;;;;;;;14.39;37.77;94565.06;10439524;27;96993;-64
2022/04/21 19:07:16;;;;;;;5.82;3.40;;;;;;;14.39;37.72;94565.84;10443662;27;96977;-64
2022/04/21 19:12:21;;;;;;;5.70;3.70;;;;;;;14.40;37.72;94567.44;10445346;27;98463;-64
2022/04/21 19:17:24;;;;;;;6.43;3.77;;;;;;;14.34;36.96;94558.59;10443332;27;97300;-64
2022/04/21 19:22:28;;;;;;;4.90;3.22;;;;;;;14.18;37.68;94565.13;10437679;27;96946;-64
2022/04/21 19:27:40;;;;;;;4.97;2.90;;;;;;;14.02;37.54;94567.44;10444829;27;97340;-64
2022/04/21 19:32:43;;;;;;;6.53;3.20;;;;;;;13.88;36.96;94564.91;10446069;27;96753;-64
2022/04/21 19:37:46;;;;;;;5.93;2.80;;;;;;;13.79;36.42;94555.63;10443323;27;97035;-64
2022/04/21 19:42:51;;;;;;;7.63;2.90;;;;;;;13.73;36.75;94566.97;10450439;27;102178;-64
2022/04/21 19:47:53;;;;;;;3.70;2.77;;;;;;;13.65;35.72;94562.75;10447703;27;96904;-64
2022/04/21 19:52:57;;;;;;;7.50;3.38;;;;;;;13.58;35.95;94560.16;10461913;27;96950;-64
2022/04/21 19:58:02;;;;;;;5.90;3.07;;;;;;;13.51;35.89;94564.63;10440495;27;96805;-64
2022/04/21 20:03:05;;;;;;;7.80;4.00;;;;;;;13.46;35.59;94556.56;10451482;27;96965;-64
2022/04/21 20:13:30;;;;;;;7.22;3.75;;;;;;;13.48;34.86;94554.56;10441096;27;96779;-64
2022/04/21 20:18:35;;;;;;;6.35;3.80;;;;;;;13.47;34.59;94558.19;10442434;27;97098;-64
2022/04/21 20:23:38;;;;;;;5.82;3.10;;;;;;;13.49;34.77;94565.84;10442224;27;96846;-64
2022/04/21 20:28:42;;;;;;;6.63;3.45;;;;;;;13.43;34.77;94567.50;10434420;27;99040;-63
2022/04/21 20:33:46;;;;;;;5.87;3.47;;;;;;;13.37;34.81;94563.06;10440782;27;97621;-64
2022/04/21 20:38:49;;;;;;;7.05;3.50;;;;;;;13.29;35.21;94553.63;10443139;27;96963;-64
2022/04/21 20:43:53;;;;;;;4.93;3.10;;;;;;;13.20;35.32;94557.44;10440110;27;97567;-63
2022/04/21 20:48:56;;;;;;;6.37;3.30;;;;;;;13.16;35.39;94562.28;10449893;27;97898;-64
2022/04/21 20:53:59;;;;;;;7.90;3.22;;;;;;;13.10;35.57;94557.88;10456989;27;98268;-64
2022/04/21 20:59:03;;;;;;;6.38;3.42;;;;;;;13.05;35.94;94553.25;10457765;27;96859;-64
2022/04/21 21:04:06;;;;;;;6.33;3.40;;;;;;;13.01;36.11;94559.09;10442789;27;98833;-63
2022/04/21 21:09:09;;;;;;;5.88;3.35;;;;;;;12.93;36.25;94552.25;10440994;27;96936;-63
2022/04/21 21:14:13;;;;;;;6.80;3.78;;;;;;;12.86;36.05;94557.47;10445865;27;97175;-63
2022/04/21 21:19:35;;;;;;;9.13;4.18;;;;;;;12.81;36.84;94544.16;10440007;27;98010;-64
2022/04/21 21:24:39;;;;;;;6.07;4.50;;;;;;;12.75;37.16;94546.78;10441030;27;101268;-64
2022/04/21 21:29:43;;;;;;;7.28;4.25;;;;;;;12.73;37.59;94549.59;10444499;27;96749;-63
2022/04/21 21:34:46;;;;;;;8.30;4.43;;;;;;;12.72;37.49;94534.91;10442662;27;97013;-64
2022/04/21 21:39:49;;;;;;;6.43;4.65;;;;;;;12.68;37.85;94541.56;10442989;27;98070;-63
2022/04/21 21:44:53;;;;;;;8.02;4.78;;;;;;;12.63;38.04;94534.31;10441642;27;96936;-64
2022/04/21 21:55:16;;;;;;;7.18;5.07;;;;;;;12.50;38.00;94536.94;10446471;27;98289;-63
2022/04/21 22:00:22;;;;;;;10.27;7.40;;;;;;;12.52;37.71;94539.34;10450934;27;96919;-63
2022/04/21 22:05:25;;;;;;;7.88;6.32;;;;;;;12.38;37.76;94536.72;10438603;27;97341;-63
2022/04/21 22:10:28;;;;;;;9.23;6.35;;;;;;;12.21;38.05;94532.88;10448963;27;96891;-64
2022/04/21 22:15:32;;;;;;;4.72;3.50;;;;;;;12.13;38.25;94533.88;10435360;27;98265;-63
2022/04/21 22:20:35;;;;;;;6.23;3.77;;;;;;;12.08;38.85;94524.00;10436984;27;96874;-63
2022/04/21 22:25:38;;;;;;;5.63;4.38;;;;;;;11.83;39.42;94525.56;10449644;27;96959;-63
2022/04/21 22:30:42;;;;;;;8.55;4.05;;;;;;;11.61;39.80;94528.31;10451738;27;97201;-63
2022/04/21 22:35:45;;;;;;;6.00;4.17;;;;;;;11.63;40.03;94525.50;10451499;27;97234;-63
2022/04/21 22:40:52;;;;;;;6.55;4.18;;;;;;;11.59;40.02;94521.66;10440565;27;98598;-64
2022/04/21 22:45:57;;;;;;;5.57;3.97;;;;;;;11.46;40.53;94523.22;10446427;27;96968;-64
2022/04/21 22:51:01;;;;;;;5.63;3.65;;;;;;;11.38;40.71;94522.59;10447424;27;97511;-64
2022/04/21 22:56:04;;;;;;;5.40;3.80;;;;;;;11.14;40.57;94512.41;10445977;27;98172;-63
2022/04/21 23:01:09;;;;;;;5.97;4.03;;;;;;;10.99;41.09;94503.88;10445900;27;97129;-64
2022/04/21 23:06:12;;;;;;;6.97;3.95;;;;;;;10.85;41.37;94517.88;10447690;27;97236;-64
2022/04/21 23:16:36;;;;;;;6.45;4.00;;;;;;;10.78;41.10;94509.97;10445164;27;96855;-63
2022/04/21 23:21:39;;;;;;;5.33;3.93;;;;;;;10.46;42.99;94508.75;10448114;27;97424;-64
2022/04/21 23:26:45;;;;;;;6.53;3.45;;;;;;;10.29;42.89;94506.41;10456519;27;97979;-64
2022/04/21 23:31:49;;;;;;;5.07;3.78;;;;;;;10.14;43.78;94511.69;10449501;27;97445;-63
2022/04/21 23:36:52;;;;;;;7.73;4.30;;;;;;;9.88;44.54;94509.66;10443327;27;97075;-63
2022/04/21 23:41:58;;;;;;;5.85;4.72;;;;;;;9.93;44.43;94515.13;10450662;27;97025;-63
2022/04/21 23:47:04;;;;;;;7.35;4.68;;;;;;;9.76;45.27;94504.13;10444422;27;97176;-63
2022/04/21 23:52:07;;;;;;;7.20;4.43;;;;;;;9.58;46.30;94501.13;10428868;27;96881;-64
2022/04/21 23:57:10;;;;;;;9.80;4.40;;;;;;;9.33;46.79;94504.00;10438329;27;98017;-63
